Time;durP1;ratioP1;P1;durP2;ratioP2;P2;SDS_P1;SDS_P2;PMS_P1;PMS_P2;Temp;Humidity;BMP_temperature;BMP_pressure;BME280_temperature;BME280_humidity;BME280_pressure;Samples;Min_cycle;Max_cycle;Signal;HPM_P1;HPM_P2
2022/09/06 00:00:09;;;;;;;9.65;3.25;;;18.30;66.90;;;;;;5008566;28;20041;-47
2022/09/06 00:02:35;;;;;;;4.30;3.38;;;18.30;66.70;;;;;;5013443;28;20029;-49
2022/09/06 00:05:03;;;;;;;4.95;3.15;;;18.30;66.80;;;;;;5023631;28;20351;-48
2022/09/06 00:07:32;;;;;;;4.40;3.22;;;18.30;66.80;;;;;;5009029;28;20499;-46
2022/09/06 00:10:00;;;;;;;4.55;2.83;;;18.30;66.50;;;;;;5009666;28;20026;-48
2022/09/06 00:12:26;;;;;;;4.80;3.00;;;18.30;66.90;;;;;;5010681;28;20037;-47
2022/09/06 00:14:55;;;;;;;4.82;3.38;;;18.30;66.70;;;;;;5016969;28;20057;-47
2022/09/06 00:17:21;;;;;;;5.03;3.05;;;18.30;66.80;;;;;;5019061;28;20030;-47
2022/09/06 00:19:47;;;;;;;5.00;3.17;;;18.30;67.00;;;;;;5033002;28;20060;-47
2022/09/06 00:22:12;;;;;;;5.68;3.30;;;18.30;67.00;;;;;;5022153;28;20029;-47
2022/09/06 00:24:38;;;;;;;5.70;3.38;;;18.20;67.10;;;;;;5029395;28;20180;-51
2022/09/06 00:27:07;;;;;;;8.65;4.07;;;18.20;66.90;;;;;;5014394;28;20046;-46
2022/09/06 00:29:35;;;;;;;5.78;3.80;;;18.20;67.00;;;;;;5013819;28;20034;-47
2022/09/06 00:32:01;;;;;;;10.75;3.83;;;18.20;67.10;;;;;;5011794;28;20030;-46
2022/09/06 00:34:29;;;;;;;4.40;3.38;;;18.10;67.00;;;;;;5028134;28;20308;-49
2022/09/06 00:36:57;;;;;;;5.85;3.60;;;18.20;67.20;;;;;;5012499;28;20030;-47
2022/09/06 00:39:23;;;;;;;4.20;3.40;;;18.10;67.00;;;;;;5017629;28;20466;-47
2022/09/06 00:41:51;;;;;;;5.70;3.78;;;18.10;67.20;;;;;;5029710;28;20112;-46
2022/09/06 00:44:16;;;;;;;5.93;3.67;;;18.10;66.90;;;;;;5031884;28;20037;-46
2022/09/06 00:46:48;;;;;;;5.03;3.35;;;18.10;67.10;;;;;;5017226;28;20044;-46
2022/09/06 00:49:23;;;;;;;4.57;2.90;;;18.10;67.10;;;;;;5025431;28;20057;-47
2022/09/06 00:51:56;;;;;;;7.18;3.58;;;18.10;67.00;;;;;;5026458;28;20026;-47
2022/09/06 00:54:21;;;;;;;5.53;3.38;;;18.00;67.20;;;;;;5019538;28;20028;-46
2022/09/06 00:56:47;;;;;;;4.53;3.28;;;18.00;67.30;;;;;;5001851;28;20140;-46
2022/09/06 00:59:16;;;;;;;5.90;3.63;;;17.90;67.40;;;;;;5012059;28;20351;-47
2022/09/06 01:01:42;;;;;;;6.40;4.25;;;17.90;67.50;;;;;;5021248;28;20135;-47
2022/09/06 01:04:08;;;;;;;6.40;3.88;;;17.90;68.00;;;;;;5027926;28;20045;-46
2022/09/06 01:06:50;;;;;;;7.10;4.55;;;17.90;67.60;;;;;;5013737;28;20482;-47
2022/09/06 01:09:37;;;;;;;4.70;3.33;;;17.90;67.60;;;;;;5011624;28;20422;-47
2022/09/06 01:12:32;;;;;;;4.90;3.53;;;17.90;67.90;;;;;;5026288;28;20420;-46
2022/09/06 01:15:12;;;;;;;6.80;3.92;;;17.90;67.80;;;;;;5011729;28;20516;-48
2022/09/06 01:18:04;;;;;;;8.70;4.15;;;17.90;67.90;;;;;;5014196;28;20160;-46
2022/09/06 01:20:51;;;;;;;6.45;3.95;;;17.80;68.10;;;;;;5013294;28;20026;-47
2022/09/06 01:23:41;;;;;;;6.18;4.03;;;17.80;68.30;;;;;;5018050;28;20545;-49
2022/09/06 01:26:12;;;;;;;5.97;3.30;;;17.70;68.30;;;;;;5025701;28;20514;-48
2022/09/06 01:28:44;;;;;;;6.22;3.75;;;17.70;68.50;;;;;;5015502;28;20033;-46
2022/09/06 01:31:35;;;;;;;6.57;4.00;;;17.70;68.40;;;;;;5016836;28;20060;-47
2022/09/06 01:34:06;;;;;;;6.38;2.85;;;17.70;68.20;;;;;;5028968;28;20092;-46
2022/09/06 01:36:57;;;;;;;8.23;4.13;;;17.60;68.50;;;;;;5029248;28;20827;-46
2022/09/06 01:39:31;;;;;;;7.95;4.30;;;17.60;68.10;;;;;;5013244;28;20356;-47
2022/09/06 01:42:01;;;;;;;5.30;3.50;;;17.60;68.30;;;;;;5020626;28;20083;-47
2022/09/06 01:44:29;;;;;;;8.63;4.00;;;17.60;68.30;;;;;;5014113;28;20462;-46
2022/09/06 01:47:09;;;;;;;8.60;3.85;;;17.50;68.70;;;;;;5018180;28;20038;-50
2022/09/06 01:50:18;;;;;;;7.43;4.50;;;17.60;68.70;;;;;;5030730;28;20026;-48
2022/09/06 01:52:53;;;;;;;6.20;3.97;;;17.60;69.00;;;;;;5022023;28;20032;-47
2022/09/06 01:55:49;;;;;;;5.78;3.95;;;17.50;69.50;;;;;;5029656;28;20018;-48
2022/09/06 01:58:28;;;;;;;5.18;3.65;;;17.50;69.10;;;;;;5010987;28;20037;-47
2022/09/06 02:01:00;;;;;;;6.47;4.13;;;17.50;69.20;;;;;;5017765;28;20129;-51
2022/09/06 02:03:41;;;;;;;6.93;4.05;;;17.50;69.30;;;;;;5016918;28;20087;-47
2022/09/06 02:06:15;;;;;;;5.60;4.47;;;17.40;69.60;;;;;;5010536;28;20471;-47
2022/09/06 02:08:46;;;;;;;5.78;4.57;;;17.40;70.00;;;;;;5009844;28;20424;-47
2022/09/06 02:11:13;;;;;;;7.03;4.18;;;17.40;69.80;;;;;;5013912;28;20576;-48
2022/09/06 02:13:52;;;;;;;5.90;3.75;;;17.50;70.20;;;;;;5014886;28;20115;-49
2022/09/06 02:16:23;;;;;;;7.32;4.00;;;17.40;70.30;;;;;;5012998;28;20030;-50
2022/09/06 02:18:52;;;;;;;11.80;3.97;;;17.40;70.10;;;;;;5021347;28;20116;-48
2022/09/06 02:21:21;;;;;;;7.72;3.55;;;17.40;70.20;;;;;;5017772;28;20022;-47
2022/09/06 02:23:48;;;;;;;6.60;4.50;;;17.40;70.10;;;;;;5020289;28;20041;-46
2022/09/06 02:26:20;;;;;;;5.72;4.70;;;17.40;70.50;;;;;;5015028;28;20323;-46
2022/09/06 02:28:46;;;;;;;7.22;4.22;;;17.40;70.50;;;;;;5009900;28;20026;-47
2022/09/06 02:31:18;;;;;;;6.53;4.40;;;17.30;71.00;;;;;;5020290;28;20633;-49
2022/09/06 02:33:46;;;;;;;8.40;4.40;;;17.30;70.90;;;;;;5021248;28;20022;-46
2022/09/06 02:36:13;;;;;;;7.13;4.72;;;17.30;71.00;;;;;;5016945;28;20116;-47
2022/09/06 02:38:40;;;;;;;9.10;4.93;;;17.20;70.90;;;;;;5030020;28;20072;-48
2022/09/06 02:41:07;;;;;;;9.88;4.75;;;17.20;71.00;;;;;;5023650;28;20038;-48
2022/09/06 02:43:35;;;;;;;5.30;4.10;;;17.20;71.10;;;;;;5028710;28;20360;-47
2022/09/06 02:46:01;;;;;;;7.90;4.57;;;17.20;71.20;;;;;;5010483;28;20046;-48
2022/09/06 02:48:27;;;;;;;6.20;4.18;;;17.20;71.50;;;;;;5012195;28;20040;-47
2022/09/06 02:50:52;;;;;;;6.25;4.35;;;17.20;71.60;;;;;;5020499;28;20026;-47
2022/09/06 02:53:18;;;;;;;6.47;4.70;;;17.10;71.80;;;;;;5024835;28;20021;-48
2022/09/06 02:55:46;;;;;;;6.97;4.38;;;17.20;71.70;;;;;;5023989;28;20060;-48
2022/09/06 02:58:14;;;;;;;5.70;4.15;;;17.20;71.70;;;;;;5009470;28;20417;-49
2022/09/06 03:00:40;;;;;;;6.22;4.60;;;17.10;72.00;;;;;;5013063;28;20108;-47
2022/09/06 03:03:06;;;;;;;6.78;4.72;;;17.10;72.30;;;;;;5010393;28;20104;-47
2022/09/06 03:05:32;;;;;;;5.03;4.10;;;17.10;72.00;;;;;;5014475;28;20343;-46
2022/09/06 03:07:58;;;;;;;6.68;4.35;;;17.10;72.00;;;;;;5025818;28;20041;-46
2022/09/06 03:10:25;;;;;;;5.82;4.40;;;17.10;72.00;;;;;;5008402;28;20399;-47
2022/09/06 03:12:51;;;;;;;6.63;4.07;;;17.10;72.00;;;;;;5008313;28;20105;-46
2022/09/06 03:15:17;;;;;;;8.90;4.40;;;17.10;71.80;;;;;;5010216;28;20037;-47
2022/09/06 03:17:43;;;;;;;7.95;4.85;;;17.10;72.20;;;;;;5020423;28;20034;-50
2022/09/06 03:20:10;;;;;;;7.75;4.07;;;17.20;72.00;;;;;;5015526;28;20510;-50
2022/09/06 03:22:38;;;;;;;8.50;4.70;;;17.20;71.80;;;;;;5017303;28;20037;-49
2022/09/06 03:25:05;;;;;;;5.65;4.45;;;17.30;71.30;;;;;;5009437;28;20030;-51
2022/09/06 03:27:31;;;;;;;7.15;4.47;;;17.40;71.20;;;;;;5009678;28;20080;-46
2022/09/06 03:29:57;;;;;;;6.65;5.20;;;17.40;70.90;;;;;;5009475;28;20029;-47
2022/09/06 03:32:23;;;;;;;7.53;4.57;;;17.40;70.50;;;;;;5018320;28;20021;-46
2022/09/06 03:34:48;;;;;;;8.02;4.03;;;17.40;70.30;;;;;;5015164;28;20042;-47
2022/09/06 03:37:16;;;;;;;5.97;4.43;;;17.40;70.10;;;;;;5008296;28;20037;-46
2022/09/06 03:39:42;;;;;;;6.05;4.45;;;17.40;69.70;;;;;;5008536;28;20048;-46
2022/09/06 03:42:10;;;;;;;6.70;4.13;;;17.40;69.90;;;;;;5025149;28;20030;-46
2022/09/06 03:44:36;;;;;;;7.28;4.05;;;17.40;70.40;;;;;;5029068;28;20049;-47
2022/09/06 03:47:02;;;;;;;5.63;4.63;;;17.40;69.90;;;;;;5019089;28;20043;-47
2022/09/06 03:49:27;;;;;;;6.97;4.75;;;17.40;69.70;;;;;;5019916;28;20033;-48
2022/09/06 03:51:55;;;;;;;7.88;4.28;;;17.40;70.00;;;;;;5017044;28;20367;-50
2022/09/06 03:54:21;;;;;;;8.02;4.55;;;17.40;70.20;;;;;;5008470;28;20026;-48
2022/09/06 03:56:47;;;;;;;5.30;4.45;;;17.30;70.20;;;;;;5024529;28;20408;-46
2022/09/06 03:59:12;;;;;;;6.47;4.30;;;17.40;70.20;;;;;;5015213;28;20113;-47
2022/09/06 04:01:38;;;;;;;6.97;4.80;;;17.30;69.70;;;;;;5023906;28;20052;-47
2022/09/06 04:04:03;;;;;;;5.97;4.07;;;17.30;69.90;;;;;;5023047;28;20075;-48
2022/09/06 04:06:29;;;;;;;6.20;4.50;;;17.20;70.30;;;;;;5022893;28;20470;-46
2022/09/06 04:08:54;;;;;;;4.82;4.00;;;17.30;70.50;;;;;;5017245;28;20025;-47
2022/09/06 04:11:20;;;;;;;6.50;4.32;;;17.20;70.90;;;;;;5032554;28;20347;-48
2022/09/06 04:13:46;;;;;;;5.40;3.90;;;17.20;70.70;;;;;;5031538;28;20144;-48
2022/09/06 04:16:14;;;;;;;8.85;4.72;;;17.10;71.20;;;;;;5021825;28;20371;-49
2022/09/06 04:18:39;;;;;;;6.55;4.45;;;17.10;71.20;;;;;;5025315;28;20018;-48
2022/09/06 04:21:05;;;;;;;7.13;3.95;;;17.10;71.60;;;;;;5011796;28;20029;-46
2022/09/06 04:23:31;;;;;;;10.43;4.82;;;17.10;71.10;;;;;;5024739;28;20033;-47
2022/09/06 04:25:57;;;;;;;7.15;3.90;;;17.10;71.10;;;;;;5028167;28;20021;-46
2022/09/06 04:28:25;;;;;;;8.15;4.70;;;17.00;71.10;;;;;;5030114;28;20552;-46
2022/09/06 04:31:01;;;;;;;11.45;5.43;;;17.00;70.90;;;;;;5017889;28;20029;-46
2022/09/06 04:33:28;;;;;;;6.00;4.38;;;17.10;71.00;;;;;;5029851;28;20351;-46
2022/09/06 04:35:59;;;;;;;6.53;4.22;;;17.00;70.70;;;;;;5020301;28;20051;-46
2022/09/06 04:38:27;;;;;;;6.63;4.50;;;17.10;70.80;;;;;;5029256;28;20049;-47
2022/09/06 04:40:54;;;;;;;7.28;3.67;;;17.10;71.20;;;;;;5029949;28;20090;-46
2022/09/06 04:43:20;;;;;;;8.90;4.38;;;17.10;70.80;;;;;;5032050;28;20083;-52
2022/09/06 04:45:48;;;;;;;5.18;3.80;;;17.10;70.70;;;;;;5015647;28;20083;-46
2022/09/06 04:48:16;;;;;;;6.03;4.47;;;17.10;70.40;;;;;;5025943;28;20033;-47
2022/09/06 04:50:42;;;;;;;6.05;4.38;;;17.10;70.50;;;;;;5023022;28;20408;-47
2022/09/06 04:53:09;;;;;;;6.15;4.28;;;17.10;70.80;;;;;;5027898;28;20060;-46
2022/09/06 04:55:36;;;;;;;7.32;4.18;;;17.10;70.60;;;;;;5026787;28;20030;-50
2022/09/06 04:58:02;;;;;;;7.32;4.20;;;17.10;70.70;;;;;;5012377;28;20101;-46
2022/09/06 05:00:32;;;;;;;6.38;4.20;;;17.10;70.60;;;;;;5021401;28;20071;-49
2022/09/06 05:02:58;;;;;;;6.22;4.05;;;17.00;70.40;;;;;;5010644;28;20066;-46
2022/09/06 05:05:24;;;;;;;5.75;4.53;;;17.10;69.90;;;;;;5013605;28;20063;-47
2022/09/06 05:07:53;;;;;;;8.93;3.90;;;17.00;69.60;;;;;;5010620;28;20434;-47
2022/09/06 05:10:21;;;;;;;6.95;4.50;;;17.10;69.50;;;;;;5014149;28;20335;-47
2022/09/06 05:12:48;;;;;;;6.47;4.05;;;17.00;69.40;;;;;;5011275;28;20030;-46
2022/09/06 05:15:15;;;;;;;13.77;5.20;;;17.00;69.40;;;;;;5010663;28;20026;-47
2022/09/06 05:17:41;;;;;;;9.65;4.50;;;17.00;69.40;;;;;;5031119;28;20477;-47
2022/09/06 05:20:07;;;;;;;6.20;4.35;;;17.10;69.20;;;;;;5025471;28;20030;-47
2022/09/06 05:22:33;;;;;;;7.53;4.10;;;17.10;69.50;;;;;;5021927;28;20032;-47
2022/09/06 05:24:58;;;;;;;5.93;4.03;;;17.10;69.20;;;;;;5019978;28;20370;-47
2022/09/06 05:27:24;;;;;;;7.63;4.28;;;17.20;69.30;;;;;;5015221;28;20065;-48
2022/09/06 05:29:50;;;;;;;7.10;4.15;;;17.10;69.50;;;;;;5014687;28;20037;-47
2022/09/06 05:32:15;;;;;;;7.93;4.13;;;17.20;69.60;;;;;;5024654;28;20449;-49
2022/09/06 05:34:43;;;;;;;5.30;4.10;;;17.20;69.10;;;;;;5023990;28;20026;-49
2022/09/06 05:37:09;;;;;;;7.28;4.80;;;17.20;69.20;;;;;;5023289;28;20069;-47
2022/09/06 05:39:34;;;;;;;6.90;4.15;;;17.20;69.20;;;;;;5026968;28;20079;-47
2022/09/06 05:42:05;;;;;;;9.88;5.45;;;17.20;69.00;;;;;;5028137;28;20042;-49
2022/09/06 05:44:37;;;;;;;8.05;4.13;;;17.10;69.10;;;;;;5013512;28;20113;-46
2022/09/06 05:47:03;;;;;;;7.93;4.75;;;17.20;69.30;;;;;;5010942;28;20037;-46
2022/09/06 05:49:30;;;;;;;10.82;4.63;;;17.20;69.60;;;;;;5013020;28;20032;-46
2022/09/06 05:51:56;;;;;;;7.75;4.50;;;17.20;69.90;;;;;;5015517;28;20410;-49
2022/09/06 05:54:21;;;;;;;8.27;4.20;;;17.20;70.20;;;;;;5019065;28;20093;-50
2022/09/06 05:56:47;;;;;;;7.88;4.90;;;17.20;70.00;;;;;;5029209;28;20112;-46
2022/09/06 05:59:13;;;;;;;5.97;4.43;;;17.20;70.00;;;;;;5025490;28;20116;-46
2022/09/06 06:01:52;;;;;;;7.53;4.32;;;17.20;70.10;;;;;;5016929;28;20034;-48
2022/09/06 06:04:19;;;;;;;7.30;4.93;;;17.20;70.30;;;;;;5027926;28;20021;-47
2022/09/06 06:06:45;;;;;;;14.02;5.28;;;17.20;70.10;;;;;;5020112;28;20038;-47
2022/09/06 06:09:12;;;;;;;9.60;4.95;;;17.20;70.00;;;;;;5024719;28;20293;-46
2022/09/06 06:11:37;;;;;;;7.07;4.38;;;17.20;70.10;;;;;;5015297;28;20036;-48
2022/09/06 06:14:06;;;;;;;7.55;4.80;;;17.20;70.10;;;;;;5020463;28;20030;-49
2022/09/06 06:16:32;;;;;;;7.82;4.43;;;17.20;70.20;;;;;;5018210;28;20037;-46
2022/09/06 06:19:00;;;;;;;8.43;4.70;;;17.10;70.40;;;;;;5029582;28;20036;-48
2022/09/06 06:21:28;;;;;;;7.07;4.55;;;17.10;70.90;;;;;;5013877;28;20018;-46
2022/09/06 06:23:58;;;;;;;6.20;4.97;;;17.10;70.90;;;;;;5019316;28;20097;-49
2022/09/06 06:26:25;;;;;;;8.18;4.65;;;17.00;71.10;;;;;;5018168;28;20030;-48
2022/09/06 06:28:52;;;;;;;10.00;5.15;;;16.90;70.70;;;;;;5008629;28;20022;-46
2022/09/06 06:31:21;;;;;;;8.68;4.72;;;16.90;71.10;;;;;;5012988;28;20040;-46
2022/09/06 06:33:49;;;;;;;7.10;4.72;;;16.90;71.10;;;;;;5020401;28;20067;-46
2022/09/06 06:36:15;;;;;;;9.70;4.35;;;16.90;71.40;;;;;;5023303;28;20358;-46
2022/09/06 06:38:43;;;;;;;8.52;4.35;;;16.90;71.60;;;;;;5014026;28;20091;-46
2022/09/06 06:41:11;;;;;;;12.52;4.78;;;16.90;72.40;;;;;;5021118;28;20052;-47
2022/09/06 06:43:40;;;;;;;11.48;6.63;;;16.90;73.70;;;;;;5022239;28;20427;-64
2022/09/06 06:46:11;;;;;;;9.63;6.00;;;16.80;75.90;;;;;;5014991;28;20641;-64
2022/09/06 06:48:40;;;;;;;8.27;6.03;;;16.50;78.30;;;;;;5037662;28;20084;-62
2022/09/06 06:51:09;;;;;;;9.02;6.50;;;16.20;80.30;;;;;;5015043;28;20037;-64
2022/09/06 06:53:37;;;;;;;11.43;6.40;;;16.00;82.30;;;;;;5016826;28;20032;-63
2022/09/06 06:56:22;;;;;;;9.43;5.95;;;15.80;82.60;;;;;;5017734;28;20034;-63
2022/09/06 06:58:51;;;;;;;12.55;6.32;;;15.70;83.10;;;;;;5014485;28;21984;-63
2022/09/06 07:01:19;;;;;;;15.10;7.13;;;15.60;83.80;;;;;;5017270;28;20108;-66
2022/09/06 07:03:45;;;;;;;11.32;7.18;;;15.50;84.30;;;;;;5019842;28;20033;-65
2022/09/06 07:06:11;;;;;;;7.85;6.30;;;15.30;84.80;;;;;;5014697;28;20036;-59
2022/09/06 07:08:37;;;;;;;8.23;6.47;;;15.30;86.20;;;;;;5016499;28;20700;-57
2022/09/06 07:11:04;;;;;;;10.88;6.78;;;15.20;85.50;;;;;;5017210;28;20036;-56
2022/09/06 07:13:30;;;;;;;10.95;6.65;;;15.10;85.80;;;;;;5024217;28;20045;-58
2022/09/06 07:16:16;;;;;;;8.02;6.75;;;15.10;86.00;;;;;;5015546;28;20021;-58
2022/09/06 07:18:44;;;;;;;10.55;6.13;;;15.00;85.60;;;;;;5009496;28;20571;-59
2022/09/06 07:21:15;;;;;;;14.38;6.70;;;15.00;85.20;;;;;;5011942;28;20048;-65
2022/09/06 07:23:41;;;;;;;9.75;6.78;;;15.00;86.20;;;;;;5015994;28;20053;-64
2022/09/06 07:26:12;;;;;;;15.95;6.63;;;15.00;86.60;;;;;;5015708;28;20873;-61
2022/09/06 07:28:37;;;;;;;9.38;6.72;;;15.10;87.00;;;;;;5013003;28;20087;-57
2022/09/06 07:31:03;;;;;;;13.75;7.47;;;15.00;86.40;;;;;;5020312;28;20445;-53
2022/09/06 07:33:29;;;;;;;7.72;6.22;;;14.90;85.90;;;;;;5021292;28;20045;-56
2022/09/06 07:36:02;;;;;;;7.25;5.65;;;15.00;86.00;;;;;;5019762;28;20373;-57
2022/09/06 07:38:29;;;;;;;8.95;6.72;;;15.00;86.20;;;;;;5022280;28;20033;-56
2022/09/06 07:40:56;;;;;;;9.48;6.25;;;15.10;86.60;;;;;;5018106;28;20079;-56
2022/09/06 07:43:22;;;;;;;16.02;6.82;;;15.20;86.00;;;;;;5026444;28;20374;-54
2022/09/06 07:45:57;;;;;;;13.52;5.55;;;15.30;86.10;;;;;;5029432;28;20059;-51
2022/09/06 07:48:23;;;;;;;12.50;4.95;;;15.30;85.70;;;;;;5035841;28;20036;-51
2022/09/06 07:50:48;;;;;;;13.35;5.63;;;15.30;84.90;;;;;;5032558;28;20028;-52
2022/09/06 07:53:14;;;;;;;14.55;5.10;;;15.30;85.30;;;;;;5023870;28;20312;-52
2022/09/06 07:55:39;;;;;;;9.88;5.88;;;15.40;85.30;;;;;;5025843;28;20028;-49
2022/09/06 07:58:05;;;;;;;19.58;6.50;;;15.40;84.70;;;;;;5030006;28;20044;-50
2022/09/06 08:00:31;;;;;;;9.65;5.47;;;15.50;84.90;;;;;;5016887;28;20021;-48
2022/09/06 08:02:57;;;;;;;12.02;5.82;;;15.60;84.60;;;;;;5019743;28;20056;-49
2022/09/06 08:05:22;;;;;;;8.85;5.35;;;15.60;84.70;;;;;;5018796;28;20387;-47
2022/09/06 08:07:48;;;;;;;10.68;5.90;;;15.50;84.20;;;;;;5033143;28;20040;-46
2022/09/06 08:10:13;;;;;;;9.20;6.25;;;15.50;84.40;;;;;;5030094;28;20414;-47
2022/09/06 08:12:39;;;;;;;10.93;5.55;;;15.50;84.50;;;;;;5031363;28;20034;-47
2022/09/06 08:15:05;;;;;;;12.25;5.93;;;15.50;84.30;;;;;;5025939;28;20043;-46
2022/09/06 08:17:34;;;;;;;14.70;5.85;;;15.50;85.00;;;;;;5022297;28;20412;-46
2022/09/06 08:20:01;;;;;;;8.23;5.22;;;15.50;84.90;;;;;;5017271;28;20025;-46
2022/09/06 08:22:33;;;;;;;11.20;5.50;;;15.50;84.50;;;;;;5014504;28;20049;-47
2022/09/06 08:24:59;;;;;;;7.97;6.00;;;15.50;84.70;;;;;;5018142;28;20084;-50
2022/09/06 08:27:24;;;;;;;15.13;6.07;;;15.60;85.20;;;;;;5021686;28;20030;-46
2022/09/06 08:29:51;;;;;;;12.88;5.85;;;15.60;85.00;;;;;;5015143;28;20108;-47
2022/09/06 08:32:18;;;;;;;15.48;6.45;;;15.60;85.20;;;;;;5029015;28;20026;-46
2022/09/06 08:34:44;;;;;;;14.70;6.28;;;15.70;85.60;;;;;;5022964;28;20084;-46
2022/09/06 08:37:09;;;;;;;14.80;7.63;;;15.70;85.70;;;;;;5016971;28;20017;-45
2022/09/06 08:39:35;;;;;;;14.50;7.53;;;15.80;85.60;;;;;;5025300;28;20398;-46
2022/09/06 08:42:06;;;;;;;10.15;5.85;;;15.90;85.80;;;;;;5029121;28;20036;-46
2022/09/06 08:44:37;;;;;;;12.20;6.65;;;15.90;85.80;;;;;;5030145;28;20466;-46
2022/09/06 08:47:19;;;;;;;11.57;6.22;;;15.90;86.10;;;;;;5022363;28;20038;-46
2022/09/06 08:49:59;;;;;;;12.18;6.97;;;15.90;86.10;;;;;;5011134;28;20084;-45
2022/09/06 08:52:37;;;;;;;14.75;6.97;;;15.90;85.80;;;;;;5026023;28;20025;-45
2022/09/06 08:55:22;;;;;;;11.52;6.57;;;15.90;85.60;;;;;;5022099;28;20026;-46
2022/09/06 08:58:29;;;;;;;11.88;7.15;;;16.00;86.10;;;;;;5025276;28;20039;-47
2022/09/06 09:01:00;;;;;;;9.32;6.28;;;16.00;86.20;;;;;;5023780;28;20042;-45
2022/09/06 09:03:33;;;;;;;11.80;7.22;;;15.90;85.40;;;;;;5012494;28;20474;-45
2022/09/06 09:06:02;;;;;;;10.10;6.20;;;16.00;85.90;;;;;;5022303;28;20132;-45
2022/09/06 09:08:43;;;;;;;8.52;5.20;;;15.90;85.00;;;;;;5027782;28;20052;-45
2022/09/06 09:11:15;;;;;;;11.82;5.63;;;15.90;84.70;;;;;;5018283;28;20355;-44
2022/09/06 09:13:53;;;;;;;8.93;5.90;;;15.90;83.50;;;;;;5007093;28;20463;-46
2022/09/06 09:16:19;;;;;;;9.32;5.32;;;15.90;84.10;;;;;;5025199;28;20056;-45
2022/09/06 09:18:49;;;;;;;8.68;5.10;;;15.90;84.20;;;;;;5019816;28;20037;-45
2022/09/06 09:21:19;;;;;;;11.60;6.15;;;16.00;83.80;;;;;;5024692;28;20205;-47
2022/09/06 09:23:55;;;;;;;7.07;5.07;;;16.00;83.60;;;;;;5024316;28;20474;-45
2022/09/06 09:26:27;;;;;;;6.38;4.93;;;16.00;83.60;;;;;;5022903;28;20044;-45
2022/09/06 09:29:11;;;;;;;7.78;5.63;;;16.00;83.60;;;;;;5023182;28;20056;-45
2022/09/06 09:31:41;;;;;;;7.80;5.47;;;16.10;82.90;;;;;;5027562;28;20021;-45
2022/09/06 09:34:12;;;;;;;7.93;4.93;;;16.10;82.70;;;;;;5006856;28;20030;-47
2022/09/06 09:36:37;;;;;;;7.68;4.78;;;16.10;82.70;;;;;;5014205;28;20173;-46
2022/09/06 09:39:10;;;;;;;6.93;4.93;;;16.20;82.10;;;;;;5015500;28;20471;-46
2022/09/06 09:41:39;;;;;;;8.50;5.28;;;16.20;82.20;;;;;;5019394;28;20034;-45
2022/09/06 09:44:10;;;;;;;6.63;5.27;;;16.20;82.00;;;;;;5024429;28;20036;-45
2022/09/06 09:46:38;;;;;;;7.05;4.65;;;16.20;80.40;;;;;;5014684;28;20276;-46
2022/09/06 09:49:31;;;;;;;6.88;4.53;;;16.20;80.70;;;;;;5019170;28;20033;-45
2022/09/06 09:52:12;;;;;;;9.55;5.13;;;16.20;80.40;;;;;;5016498;28;20029;-48
2022/09/06 09:54:46;;;;;;;9.48;5.20;;;16.20;80.90;;;;;;5016268;28;20351;-47
2022/09/06 09:57:18;;;;;;;5.45;4.75;;;16.20;80.70;;;;;;5013846;28;20038;-46
2022/09/06 09:59:53;;;;;;;8.18;4.82;;;16.30;80.50;;;;;;5013267;28;20065;-46
2022/09/06 10:02:42;;;;;;;8.32;4.32;;;16.20;79.90;;;;;;5014620;28;20029;-45
2022/09/06 10:05:10;;;;;;;6.20;3.92;;;16.20;79.90;;;;;;5022611;28;20427;-45
2022/09/06 10:07:46;;;;;;;5.47;3.72;;;16.10;80.00;;;;;;5009067;28;20044;-46
2022/09/06 10:10:19;;;;;;;6.80;4.40;;;16.20;80.50;;;;;;5017515;28;20025;-46
2022/09/06 10:12:44;;;;;;;7.93;4.32;;;16.10;78.40;;;;;;5017396;28;20457;-49
2022/09/06 10:15:30;;;;;;;6.50;4.20;;;16.20;78.70;;;;;;5012798;28;20026;-45
2022/09/06 10:17:56;;;;;;;7.32;3.92;;;16.20;78.20;;;;;;5010875;28;20121;-46
2022/09/06 10:20:47;;;;;;;6.97;4.00;;;16.20;77.50;;;;;;5011997;28;20101;-47
2022/09/06 10:23:36;;;;;;;5.80;3.65;;;16.20;78.20;;;;;;5009273;28;20045;-46
2022/09/06 10:26:13;;;;;;;7.53;3.53;;;16.40;77.40;;;;;;5015280;28;20033;-48
2022/09/06 10:28:44;;;;;;;10.55;3.78;;;16.40;76.60;;;;;;5017132;28;20025;-45
2022/09/06 10:31:44;;;;;;;8.02;4.13;;;16.40;76.50;;;;;;5012504;28;20456;-46
2022/09/06 10:34:32;;;;;;;5.47;3.00;;;16.50;76.60;;;;;;5016559;28;20029;-46
2022/09/06 10:37:19;;;;;;;9.40;3.47;;;16.60;76.30;;;;;;5013063;28;20073;-46
2022/09/06 10:39:48;;;;;;;5.82;3.35;;;16.70;76.10;;;;;;5012815;28;20057;-46
2022/09/06 10:42:46;;;;;;;5.43;3.10;;;16.90;76.10;;;;;;5008686;28;20018;-46
2022/09/06 10:45:48;;;;;;;10.73;3.75;;;17.00;74.10;;;;;;5020014;28;20108;-47
2022/09/06 10:48:47;;;;;;;8.52;3.50;;;17.10;74.30;;;;;;5023509;28;20179;-47
2022/09/06 10:51:27;;;;;;;7.75;3.60;;;17.40;73.10;;;;;;5019056;28;20045;-47
2022/09/06 10:53:56;;;;;;;7.00;3.30;;;17.50;71.70;;;;;;5020099;28;20030;-49
2022/09/06 10:56:51;;;;;;;7.45;3.42;;;17.50;71.30;;;;;;5012301;28;20034;-46
2022/09/06 10:59:52;;;;;;;10.60;2.67;;;17.50;71.30;;;;;;5014273;28;20113;-46
2022/09/06 11:02:38;;;;;;;8.90;3.08;;;17.50;70.10;;;;;;5014566;28;20044;-45
2022/09/06 11:05:16;;;;;;;6.10;2.80;;;17.60;69.70;;;;;;5016553;28;20033;-48
2022/09/06 11:07:43;;;;;;;5.90;2.65;;;17.80;71.00;;;;;;5013693;28;20025;-47
2022/09/06 11:10:30;;;;;;;4.72;2.35;;;17.80;69.70;;;;;;5013712;28;20038;-48
2022/09/06 11:13:19;;;;;;;4.88;2.15;;;17.80;68.80;;;;;;5020173;28;20083;-46
2022/09/06 11:15:54;;;;;;;5.97;3.05;;;17.90;70.10;;;;;;5015304;28;20078;-46
2022/09/06 11:18:35;;;;;;;8.20;3.00;;;18.10;69.20;;;;;;5015166;28;20029;-48
2022/09/06 11:21:28;;;;;;;5.18;2.92;;;18.30;69.20;;;;;;5009768;28;20025;-46
2022/09/06 11:24:05;;;;;;;9.73;2.92;;;18.70;67.90;;;;;;5014873;28;20033;-46
2022/09/06 11:26:41;;;;;;;7.60;3.45;;;18.70;68.60;;;;;;5008912;28;20452;-47
2022/09/06 11:29:22;;;;;;;6.68;3.05;;;18.90;67.80;;;;;;5010012;28;20096;-51
2022/09/06 11:31:54;;;;;;;6.53;3.70;;;19.30;67.00;;;;;;5010727;28;20455;-47
2022/09/06 11:34:23;;;;;;;7.07;3.20;;;19.50;65.60;;;;;;5014496;28;20076;-47
2022/09/06 11:36:58;;;;;;;7.38;3.33;;;19.80;68.30;;;;;;5019009;28;20514;-47
2022/09/06 11:39:50;;;;;;;5.88;2.90;;;19.90;65.20;;;;;;5018685;28;20423;-47
2022/09/06 11:42:44;;;;;;;6.60;2.92;;;20.10;66.20;;;;;;5013078;28;20025;-51
2022/09/06 11:45:09;;;;;;;5.22;3.13;;;20.30;66.80;;;;;;5013135;28;20479;-48
2022/09/06 11:47:41;;;;;;;7.38;3.40;;;20.20;67.00;;;;;;5019788;28;20064;-49
2022/09/06 11:50:27;;;;;;;7.60;3.20;;;20.20;65.80;;;;;;5009106;28;20026;-48
2022/09/06 11:53:14;;;;;;;6.18;3.22;;;20.10;64.70;;;;;;5012826;28;20428;-47
2022/09/06 11:55:50;;;;;;;7.30;3.20;;;20.00;64.90;;;;;;5013586;28;20781;-47
2022/09/06 11:58:15;;;;;;;9.75;3.70;;;20.20;66.40;;;;;;5013469;28;20018;-50
2022/09/06 12:00:41;;;;;;;7.97;3.63;;;20.30;65.40;;;;;;5010721;28;20482;-51
2022/09/06 12:03:54;;;;;;;5.40;3.38;;;20.30;65.10;;;;;;5009118;28;20029;-48
2022/09/06 12:06:40;;;;;;;7.05;3.58;;;20.20;65.10;;;;;;5009940;28;20485;-48
2022/09/06 12:09:37;;;;;;;7.95;3.90;;;20.30;64.60;;;;;;5015481;28;20025;-47
2022/09/06 12:12:03;;;;;;;5.72;3.28;;;20.40;64.80;;;;;;5019775;28;20046;-49
2022/09/06 12:14:31;;;;;;;8.35;3.75;;;20.20;64.00;;;;;;5017055;28;20022;-50
2022/09/06 12:16:59;;;;;;;5.15;3.55;;;20.20;63.90;;;;;;5019236;28;20025;-48
2022/09/06 12:19:40;;;;;;;11.30;4.03;;;20.20;64.70;;;;;;5016456;28;20037;-46
2022/09/06 12:22:28;;;;;;;8.15;3.75;;;20.00;63.70;;;;;;5018086;28;20056;-53
2022/09/06 12:25:00;;;;;;;8.65;3.63;;;19.90;63.70;;;;;;5011793;28;20030;-49
2022/09/06 12:27:48;;;;;;;6.47;3.53;;;19.70;64.30;;;;;;5016722;28;20112;-47
2022/09/06 12:30:36;;;;;;;8.98;3.78;;;19.70;64.40;;;;;;5019779;28;20076;-47
2022/09/06 12:33:25;;;;;;;7.00;3.33;;;19.70;64.30;;;;;;5033104;28;20030;-46
2022/09/06 12:35:51;;;;;;;6.57;3.03;;;19.80;64.00;;;;;;5044525;28;20474;-47
2022/09/06 12:38:23;;;;;;;6.03;4.35;;;19.80;65.40;;;;;;5021392;28;20092;-48
2022/09/06 12:40:51;;;;;;;6.45;3.72;;;19.90;63.90;;;;;;5011553;28;20485;-47
2022/09/06 12:43:19;;;;;;;7.60;3.78;;;19.90;64.80;;;;;;5025982;28;20055;-48
2022/09/06 12:45:47;;;;;;;6.82;3.47;;;20.00;63.90;;;;;;5012951;28;20061;-46
2022/09/06 12:48:27;;;;;;;7.53;3.40;;;19.90;64.60;;;;;;5022577;28;20037;-48
2022/09/06 12:51:02;;;;;;;;;;;19.80;65.30;;;;;;5015794;28;20035;-48
2022/09/06 12:53:30;;;;;;;8.20;4.13;;;19.80;65.00;;;;;;5016884;28;19913;-46
2022/09/06 12:56:11;;;;;;;4.60;3.05;;;19.80;64.20;;;;;;5017170;28;20104;-46
2022/09/06 12:58:39;;;;;;;4.65;3.35;;;20.10;65.90;;;;;;5021748;28;20435;-48
2022/09/06 13:01:18;;;;;;;5.95;3.42;;;20.20;65.80;;;;;;5016503;28;20044;-47
2022/09/06 13:03:49;;;;;;;6.10;3.25;;;20.20;64.30;;;;;;5016994;28;20025;-48
2022/09/06 13:06:20;;;;;;;6.32;4.13;;;20.20;64.80;;;;;;5012548;28;20022;-47
2022/09/06 13:08:52;;;;;;;9.45;3.67;;;20.00;64.30;;;;;;5015678;28;20033;-48